Time;durP1;ratioP1;P1;durP2;ratioP2;P2;SDS_P1;SDS_P2;PMS_P1;PMS_P2;Temp;Humidity;BMP_temperature;BMP_pressure;BME280_temperature;BME280_humidity;BME280_pressure;Samples;Min_cycle;Max_cycle;Signal;HPM_P1;HPM_P2
2021/09/20 00:00:39;;;;;;;7.60;4.73;;;12.00;99.90;;;;;;4142658;28;20104;-65
2021/09/20 00:02:40;;;;;;;6.47;3.93;;;11.90;99.90;;;;;;4142798;28;20553;-65
2021/09/20 00:04:41;;;;;;;3.67;2.77;;;12.00;99.90;;;;;;4140980;28;20042;-66
2021/09/20 00:06:43;;;;;;;3.77;2.90;;;11.90;99.90;;;;;;4143323;28;20038;-66
2021/09/20 00:08:44;;;;;;;3.47;2.73;;;11.90;99.90;;;;;;4142268;28;20037;-66
2021/09/20 00:10:45;;;;;;;3.20;2.53;;;12.00;99.90;;;;;;4144157;28;20441;-66
2021/09/20 00:12:47;;;;;;;3.80;2.83;;;11.90;99.90;;;;;;4142147;28;20100;-66
2021/09/20 00:14:49;;;;;;;5.00;2.83;;;12.00;99.90;;;;;;4143611;28;20444;-66
2021/09/20 00:16:50;;;;;;;3.57;2.43;;;12.00;99.90;;;;;;4141238;28;20084;-70
2021/09/20 00:18:51;;;;;;;5.93;3.57;;;12.00;99.90;;;;;;4143017;28;20042;-67
2021/09/20 00:20:53;;;;;;;4.70;4.13;;;11.90;99.90;;;;;;4142266;28;20173;-65
2021/09/20 00:22:54;;;;;;;4.00;3.30;;;11.90;99.90;;;;;;4143425;28;20500;-66
2021/09/20 00:24:55;;;;;;;4.03;3.23;;;12.00;99.90;;;;;;4142167;28;20092;-66
2021/09/20 00:26:56;;;;;;;4.20;3.20;;;11.90;99.90;;;;;;4142381;28;20050;-65
2021/09/20 00:28:57;;;;;;;2.40;2.00;;;11.90;99.90;;;;;;4142840;28;20470;-65
2021/09/20 00:30:58;;;;;;;4.13;2.97;;;11.80;99.90;;;;;;4142260;28;20429;-68
2021/09/20 00:32:59;;;;;;;4.07;3.00;;;11.80;99.90;;;;;;4143126;28;20434;-66
2021/09/20 00:35:00;;;;;;;5.63;3.07;;;11.80;99.90;;;;;;4142366;28;20038;-65
2021/09/20 00:37:02;;;;;;;3.30;2.80;;;11.80;99.90;;;;;;4143020;28;20516;-66
2021/09/20 00:39:03;;;;;;;5.93;3.57;;;11.80;99.90;;;;;;4141798;28;20054;-66
2021/09/20 00:41:05;;;;;;;10.10;3.83;;;11.80;99.90;;;;;;4143013;28;20033;-69
2021/09/20 00:43:07;;;;;;;7.13;2.97;;;11.80;99.90;;;;;;4141866;28;20054;-66
2021/09/20 00:45:09;;;;;;;2.80;2.40;;;11.80;99.90;;;;;;4143039;28;20474;-65
2021/09/20 00:47:10;;;;;;;2.93;2.47;;;11.70;99.90;;;;;;4141992;28;20096;-68
2021/09/20 00:49:11;;;;;;;4.40;2.20;;;11.70;99.90;;;;;;4142918;28;20050;-67
2021/09/20 00:51:13;;;;;;;5.30;2.87;;;11.70;99.90;;;;;;4141337;28;20042;-66
2021/09/20 00:53:14;;;;;;;8.20;3.20;;;11.70;99.90;;;;;;4143269;28;20049;-66
2021/09/20 00:55:16;;;;;;;9.47;3.07;;;11.70;99.90;;;;;;4141838;28;20080;-67
2021/09/20 00:57:18;;;;;;;8.30;3.20;;;11.70;99.90;;;;;;4142235;28;20033;-72
2021/09/20 00:59:20;;;;;;;6.20;2.80;;;11.80;99.90;;;;;;4142066;28;20080;-66
2021/09/20 01:01:22;;;;;;;4.87;2.50;;;11.90;99.90;;;;;;4141818;28;20033;-69
2021/09/20 01:03:23;;;;;;;2.80;2.20;;;11.90;99.90;;;;;;4142214;28;20441;-68
2021/09/20 01:05:25;;;;;;;3.17;2.27;;;11.90;99.90;;;;;;4141389;28;20104;-69
2021/09/20 01:07:27;;;;;;;3.73;2.53;;;11.90;99.90;;;;;;4142893;28;20026;-67
2021/09/20 01:09:29;;;;;;;6.07;2.90;;;12.00;99.90;;;;;;4141259;28;20123;-69
2021/09/20 01:11:30;;;;;;;4.80;2.40;;;11.90;99.90;;;;;;4142737;28;20887;-66
2021/09/20 01:13:31;;;;;;;5.07;3.13;;;12.00;99.90;;;;;;4141536;28;20049;-66
2021/09/20 01:15:33;;;;;;;2.70;2.30;;;12.00;99.90;;;;;;4142376;28;20575;-69
2021/09/20 01:17:35;;;;;;;4.50;3.23;;;12.00;99.90;;;;;;4141280;28;20625;-72
2021/09/20 01:19:36;;;;;;;5.63;3.47;;;12.00;99.90;;;;;;4142661;28;20092;-69
2021/09/20 01:21:37;;;;;;;4.83;3.57;;;12.00;99.90;;;;;;4141193;28;20100;-65
2021/09/20 01:23:38;;;;;;;5.53;2.77;;;12.00;99.90;;;;;;4142779;28;20524;-65
2021/09/20 01:25:42;;;;;;;4.90;3.07;;;12.00;99.90;;;;;;4141016;28;20607;-66
2021/09/20 01:27:43;;;;;;;5.10;2.70;;;12.00;99.90;;;;;;4141762;28;20050;-66
2021/09/20 01:29:46;;;;;;;6.83;3.63;;;11.90;99.90;;;;;;4140964;28;20038;-69
2021/09/20 01:31:47;;;;;;;4.20;3.80;;;11.90;99.90;;;;;;4141710;28;20092;-66
2021/09/20 01:33:48;;;;;;;8.00;5.47;;;11.90;99.90;;;;;;4141655;28;20038;-66
2021/09/20 01:35:49;;;;;;;5.67;4.17;;;11.90;99.90;;;;;;4141328;28;20046;-67
2021/09/20 01:37:50;;;;;;;7.47;5.30;;;11.80;99.90;;;;;;4141727;28;20379;-66
2021/09/20 01:39:52;;;;;;;7.67;4.07;;;11.80;99.90;;;;;;4141291;28;20084;-66
2021/09/20 01:41:54;;;;;;;6.77;4.87;;;11.90;99.90;;;;;;4141912;28;20034;-69
2021/09/20 01:43:55;;;;;;;6.80;4.77;;;11.90;99.90;;;;;;4141056;28;20091;-66
2021/09/20 01:45:56;;;;;;;5.47;3.90;;;11.90;99.90;;;;;;4142320;28;20069;-65
2021/09/20 01:47:57;;;;;;;4.60;3.50;;;11.80;99.90;;;;;;4140380;28;20029;-71
2021/09/20 01:49:58;;;;;;;5.13;4.23;;;11.80;99.90;;;;;;4142216;28;20068;-70
2021/09/20 01:52:00;;;;;;;5.50;4.03;;;11.80;99.90;;;;;;4140735;28;20100;-69
2021/09/20 01:54:01;;;;;;;7.80;4.37;;;11.80;99.90;;;;;;4142292;28;20034;-68
2021/09/20 01:56:02;;;;;;;6.80;4.47;;;11.80;99.90;;;;;;4140343;28;20041;-67
2021/09/20 01:58:04;;;;;;;8.27;4.83;;;11.80;99.90;;;;;;4141588;28;20080;-66
2021/09/20 02:00:07;;;;;;;5.73;3.40;;;11.80;99.90;;;;;;4141078;28;20029;-66
2021/09/20 02:02:08;;;;;;;5.07;3.23;;;11.80;99.90;;;;;;4141328;28;20033;-67
2021/09/20 02:04:09;;;;;;;4.17;3.20;;;11.80;99.90;;;;;;4139879;28;20030;-66
2021/09/20 02:06:10;;;;;;;4.93;2.60;;;11.80;99.90;;;;;;4140508;28;20108;-69
2021/09/20 02:08:11;;;;;;;3.00;2.67;;;11.80;99.90;;;;;;4141361;28;20042;-71
2021/09/20 02:10:14;;;;;;;4.07;2.93;;;11.80;99.90;;;;;;4140252;28;20081;-65
2021/09/20 02:12:16;;;;;;;4.00;3.20;;;11.80;99.90;;;;;;4141450;28;20443;-66
2021/09/20 02:14:17;;;;;;;5.57;3.37;;;11.80;99.90;;;;;;4140747;28;20059;-67
2021/09/20 02:16:19;;;;;;;3.93;3.00;;;11.80;99.90;;;;;;4141885;28;20030;-66
2021/09/20 02:18:20;;;;;;;2.73;2.30;;;11.80;99.90;;;;;;4139704;28;20766;-67
2021/09/20 02:20:22;;;;;;;3.33;2.63;;;11.80;99.90;;;;;;4141503;28;20108;-68
2021/09/20 02:22:23;;;;;;;5.27;3.13;;;11.80;99.90;;;;;;4140153;28;20108;-69
2021/09/20 02:24:24;;;;;;;4.83;3.33;;;11.70;99.90;;;;;;4142084;28;20038;-69
2021/09/20 02:26:26;;;;;;;3.87;2.47;;;11.70;99.90;;;;;;4140094;28;20076;-65
2021/09/20 02:28:27;;;;;;;7.23;3.23;;;11.70;99.90;;;;;;4141472;28;20540;-66
2021/09/20 02:30:28;;;;;;;5.67;3.07;;;11.70;99.90;;;;;;4140185;28;20013;-66
2021/09/20 02:32:31;;;;;;;5.07;2.90;;;11.70;99.90;;;;;;4141078;28;20107;-65
2021/09/20 02:34:33;;;;;;;3.53;3.10;;;11.70;99.90;;;;;;4140857;28;20046;-66
2021/09/20 02:36:34;;;;;;;5.40;3.60;;;11.70;99.90;;;;;;4140984;28;20068;-69
2021/09/20 02:38:36;;;;;;;5.17;3.20;;;11.70;99.90;;;;;;4140983;28;20038;-70
2021/09/20 02:40:37;;;;;;;6.70;4.07;;;11.70;99.90;;;;;;4139504;28;20034;-66
2021/09/20 02:42:39;;;;;;;9.13;5.57;;;11.70;99.90;;;;;;4141432;28;20029;-67
2021/09/20 02:44:40;;;;;;;11.27;6.67;;;11.60;99.90;;;;;;4139678;28;20034;-66
2021/09/20 02:46:41;;;;;;;10.43;6.97;;;11.70;99.90;;;;;;4141348;28;20084;-66
2021/09/20 02:48:42;;;;;;;7.30;5.57;;;11.70;99.90;;;;;;4139766;28;20034;-67
2021/09/20 02:50:45;;;;;;;11.10;6.00;;;11.70;99.90;;;;;;4141572;28;20442;-66
2021/09/20 02:52:46;;;;;;;13.27;6.27;;;11.60;99.90;;;;;;4140108;28;20050;-68
2021/09/20 02:54:47;;;;;;;12.30;5.57;;;11.60;99.90;;;;;;4141612;28;20490;-69
2021/09/20 02:56:49;;;;;;;15.87;6.03;;;11.50;99.90;;;;;;4140186;28;20037;-66
2021/09/20 02:58:50;;;;;;;11.70;5.60;;;11.50;99.90;;;;;;4141062;28;20089;-67
2021/09/20 03:00:51;;;;;;;11.03;4.47;;;11.40;99.90;;;;;;4140103;28;20474;-68
2021/09/20 03:02:52;;;;;;;6.30;3.50;;;11.40;99.90;;;;;;4140643;28;20041;-66
2021/09/20 03:04:53;;;;;;;3.77;3.27;;;11.30;99.90;;;;;;4140229;28;20087;-66
2021/09/20 03:06:54;;;;;;;6.10;3.70;;;11.10;99.90;;;;;;4140510;28;20128;-67
2021/09/20 03:08:55;;;;;;;7.97;3.17;;;11.00;99.90;;;;;;4140243;28;20062;-66
2021/09/20 03:10:57;;;;;;;5.33;3.20;;;10.80;99.90;;;;;;4140086;28;20080;-67
2021/09/20 03:12:58;;;;;;;6.03;3.37;;;10.70;99.90;;;;;;4140553;28;20060;-68
2021/09/20 03:14:59;;;;;;;4.23;2.93;;;10.50;99.90;;;;;;4140006;28;20045;-68
2021/09/20 03:17:01;;;;;;;3.40;3.07;;;10.40;99.90;;;;;;4141114;28;20042;-66
2021/09/20 03:19:02;;;;;;;4.90;3.30;;;10.40;99.90;;;;;;4139767;28;20045;-68
2021/09/20 03:21:03;;;;;;;5.50;3.40;;;10.30;99.90;;;;;;4140788;28;20096;-67
2021/09/20 03:23:04;;;;;;;8.90;3.47;;;10.30;99.90;;;;;;4139833;28;20494;-67
2021/09/20 03:25:07;;;;;;;8.47;4.00;;;10.20;99.90;;;;;;4141241;28;20064;-66
2021/09/20 03:27:08;;;;;;;5.60;3.63;;;10.10;99.90;;;;;;4139621;28;20076;-66
2021/09/20 03:29:10;;;;;;;7.23;3.87;;;10.10;99.90;;;;;;4141249;28;20026;-66
2021/09/20 03:31:11;;;;;;;5.67;3.90;;;10.00;99.90;;;;;;4139511;28;20813;-66
2021/09/20 03:33:12;;;;;;;9.57;4.27;;;10.00;99.90;;;;;;4140892;28;20030;-67
2021/09/20 03:35:15;;;;;;;12.50;3.80;;;10.00;99.90;;;;;;4139803;28;20092;-66
2021/09/20 03:37:16;;;;;;;8.87;4.37;;;10.00;99.90;;;;;;4140327;28;20038;-66
2021/09/20 03:39:17;;;;;;;9.30;4.90;;;10.00;99.90;;;;;;4140247;28;20084;-66
2021/09/20 03:41:18;;;;;;;12.67;4.97;;;10.00;99.90;;;;;;4139957;28;20429;-67
2021/09/20 03:43:19;;;;;;;11.53;4.90;;;10.00;99.90;;;;;;4140391;28;20042;-66
2021/09/20 03:45:20;;;;;;;19.00;6.17;;;10.10;99.90;;;;;;4138806;28;20026;-69
2021/09/20 03:47:22;;;;;;;13.30;4.90;;;10.00;99.90;;;;;;4139943;28;20092;-67
2021/09/20 03:49:24;;;;;;;13.50;4.90;;;10.10;99.90;;;;;;4138924;28;20096;-67
2021/09/20 03:51:25;;;;;;;12.57;5.27;;;10.10;99.90;;;;;;4141745;28;20432;-66
2021/09/20 03:53:26;;;;;;;13.67;4.50;;;10.10;99.90;;;;;;4142982;28;20045;-66
2021/09/20 03:55:27;;;;;;;15.83;5.97;;;10.10;99.90;;;;;;4143970;28;20030;-67
2021/09/20 03:57:29;;;;;;;17.70;4.83;;;10.00;99.90;;;;;;4141607;28;20092;-69
2021/09/20 03:59:30;;;;;;;11.60;5.10;;;10.10;99.90;;;;;;4143474;28;20100;-70
2021/09/20 04:01:31;;;;;;;9.73;4.43;;;10.00;99.90;;;;;;4142130;28;20030;-67
2021/09/20 04:03:32;;;;;;;14.40;4.53;;;10.00;99.90;;;;;;4142959;28;20034;-68
2021/09/20 04:05:33;;;;;;;8.63;4.50;;;10.00;99.90;;;;;;4142338;28;20038;-66
2021/09/20 04:07:42;;;;;;;7.77;3.60;;;9.90;99.90;;;;;;4142412;28;20042;-71
2021/09/20 04:09:43;;;;;;;14.00;4.70;;;9.90;99.90;;;;;;4142060;28;20084;-67
2021/09/20 04:11:44;;;;;;;7.13;3.67;;;9.90;99.90;;;;;;4142625;28;20033;-67
2021/09/20 04:13:45;;;;;;;9.93;3.87;;;9.80;99.90;;;;;;4142155;28;20039;-67
2021/09/20 04:15:49;;;;;;;7.20;4.20;;;9.80;99.90;;;;;;4142098;28;20164;-65
2021/09/20 04:17:50;;;;;;;9.57;4.27;;;9.70;99.90;;;;;;4142694;28;20061;-66
2021/09/20 04:19:51;;;;;;;8.63;4.83;;;9.70;99.90;;;;;;4131758;28;21040;-64
2021/09/20 04:21:52;;;;;;;7.53;3.87;;;9.70;99.90;;;;;;4134745;28;20026;-67
2021/09/20 04:23:56;;;;;;;13.07;4.50;;;9.70;99.90;;;;;;4140385;28;20454;-67
2021/09/20 04:25:57;;;;;;;10.67;4.87;;;9.80;99.90;;;;;;4141320;28;20033;-68
2021/09/20 04:27:58;;;;;;;10.13;4.33;;;9.80;99.90;;;;;;4140099;28;20452;-66
2021/09/20 04:29:59;;;;;;;10.60;4.80;;;9.80;99.90;;;;;;4141211;28;20030;-67
2021/09/20 04:32:00;;;;;;;11.57;4.10;;;9.80;99.90;;;;;;4139701;28;20053;-67
2021/09/20 04:34:02;;;;;;;14.50;5.60;;;9.90;99.90;;;;;;4141279;28;20057;-63
2021/09/20 04:36:03;;;;;;;9.20;4.60;;;9.90;99.90;;;;;;4139923;28;20041;-64
2021/09/20 04:38:05;;;;;;;7.80;4.23;;;9.90;99.90;;;;;;4131605;28;20588;-66
2021/09/20 04:40:07;;;;;;;7.57;4.07;;;9.90;99.90;;;;;;4138609;28;20120;-65
2021/09/20 04:42:10;;;;;;;11.40;4.33;;;9.90;99.90;;;;;;4141580;28;20042;-67
2021/09/20 04:44:11;;;;;;;8.30;3.50;;;9.90;99.90;;;;;;4140901;28;20430;-68
2021/09/20 04:46:12;;;;;;;9.07;4.20;;;9.90;99.90;;;;;;4141301;28;20435;-68
2021/09/20 04:48:14;;;;;;;8.47;4.53;;;9.90;99.90;;;;;;4142244;28;20453;-68
2021/09/20 04:50:15;;;;;;;14.43;4.53;;;9.90;99.90;;;;;;4141411;28;20091;-68
2021/09/20 04:52:16;;;;;;;11.93;4.33;;;9.90;99.90;;;;;;4142584;28;20060;-67
2021/09/20 04:54:17;;;;;;;8.53;4.17;;;9.80;99.90;;;;;;4141283;28;20421;-68
2021/09/20 04:56:18;;;;;;;8.77;4.37;;;9.80;99.90;;;;;;4142478;28;20041;-68
2021/09/20 04:58:19;;;;;;;9.50;3.90;;;9.70;99.90;;;;;;4141571;28;20033;-68
2021/09/20 05:00:20;;;;;;;6.97;4.30;;;9.70;99.90;;;;;;4142662;28;20096;-68
2021/09/20 05:02:22;;;;;;;8.40;3.73;;;9.70;99.90;;;;;;4141339;28;20433;-67
2021/09/20 05:04:23;;;;;;;7.63;3.80;;;9.70;99.90;;;;;;4142204;28;20038;-68
2021/09/20 05:06:24;;;;;;;8.60;4.23;;;9.80;99.90;;;;;;4141156;28;20034;-68
2021/09/20 05:08:25;;;;;;;9.43;4.03;;;9.90;99.90;;;;;;4142114;28;20046;-70
2021/09/20 05:10:26;;;;;;;6.90;4.07;;;10.00;99.90;;;;;;4141172;28;20104;-68
2021/09/20 05:12:27;;;;;;;11.93;4.87;;;10.20;99.90;;;;;;4141804;28;20030;-68
2021/09/20 05:14:29;;;;;;;8.07;4.00;;;10.30;99.90;;;;;;4141325;28;20650;-68
2021/09/20 05:16:30;;;;;;;9.70;4.53;;;10.30;99.90;;;;;;4141242;28;20541;-67
2021/09/20 05:18:31;;;;;;;15.17;4.00;;;10.40;99.90;;;;;;4142161;28;20504;-68
2021/09/20 05:20:32;;;;;;;9.83;4.97;;;10.40;99.90;;;;;;4140761;28;20034;-69
2021/09/20 05:22:34;;;;;;;7.33;4.50;;;10.40;99.90;;;;;;4141771;28;20041;-67
2021/09/20 05:24:35;;;;;;;12.80;4.53;;;10.50;99.90;;;;;;4141143;28;20033;-68
2021/09/20 05:26:36;;;;;;;7.80;5.03;;;10.50;99.90;;;;;;4142105;28;20492;-72
2021/09/20 05:28:37;;;;;;;11.93;4.90;;;10.50;99.90;;;;;;4139097;28;20097;-68
2021/09/20 05:30:38;;;;;;;14.50;5.20;;;10.50;99.90;;;;;;4142200;28;20073;-69
2021/09/20 05:32:40;;;;;;;10.93;4.93;;;10.50;99.90;;;;;;4140392;28;20041;-67
2021/09/20 05:34:41;;;;;;;12.30;5.80;;;10.50;99.90;;;;;;4142235;28;20046;-67
2021/09/20 05:36:43;;;;;;;9.27;5.17;;;10.50;99.90;;;;;;4141000;28;20029;-67
2021/09/20 05:38:44;;;;;;;10.07;4.93;;;10.50;99.90;;;;;;4141781;28;20100;-68
2021/09/20 05:40:45;;;;;;;13.70;6.60;;;10.70;99.90;;;;;;4140866;28;20037;-67
2021/09/20 05:42:46;;;;;;;10.40;5.47;;;10.80;99.90;;;;;;4141319;28;20030;-67
2021/09/20 05:44:48;;;;;;;16.00;5.17;;;10.90;99.90;;;;;;4140909;28;20029;-69
2021/09/20 05:46:49;;;;;;;11.10;5.47;;;10.90;99.90;;;;;;4140910;28;20072;-67
2021/09/20 05:48:50;;;;;;;9.90;5.27;;;10.90;99.90;;;;;;4140911;28;20030;-68
2021/09/20 05:50:51;;;;;;;9.77;5.00;;;11.00;99.90;;;;;;4138673;28;20096;-67
2021/09/20 05:52:53;;;;;;;11.83;5.03;;;11.00;99.90;;;;;;4141934;28;20092;-68
2021/09/20 05:54:54;;;;;;;14.20;4.63;;;11.00;99.90;;;;;;4140526;28;20041;-68
2021/09/20 05:56:55;;;;;;;14.57;4.83;;;11.10;99.90;;;;;;4139723;28;20046;-69
2021/09/20 05:58:57;;;;;;;9.97;5.17;;;11.10;99.90;;;;;;4140331;28;20948;-67
2021/09/20 06:00:58;;;;;;;9.00;5.23;;;11.10;99.90;;;;;;4141659;28;20497;-69
2021/09/20 06:02:59;;;;;;;11.83;5.97;;;11.10;99.90;;;;;;4140507;28;20084;-68
2021/09/20 06:05:00;;;;;;;13.07;5.20;;;11.10;99.90;;;;;;4141453;28;20030;-67
2021/09/20 06:07:02;;;;;;;8.13;4.57;;;11.20;99.90;;;;;;4140682;28;20034;-69
2021/09/20 06:09:03;;;;;;;10.90;5.77;;;11.20;99.90;;;;;;4141425;28;20092;-69
2021/09/20 06:11:04;;;;;;;12.97;5.47;;;11.20;99.90;;;;;;4138780;28;20030;-68
2021/09/20 06:13:07;;;;;;;17.57;7.20;;;11.20;99.90;;;;;;4140893;28;20042;-68
2021/09/20 06:15:09;;;;;;;14.10;7.03;;;11.10;99.90;;;;;;4139457;28;20092;-68
2021/09/20 06:17:11;;;;;;;20.73;9.33;;;11.30;99.90;;;;;;4140697;28;20034;-69
2021/09/20 06:19:12;;;;;;;13.90;7.40;;;11.30;99.90;;;;;;4140793;28;20030;-68
2021/09/20 06:21:15;;;;;;;12.77;7.10;;;11.40;99.90;;;;;;4139728;28;20532;-69
2021/09/20 06:23:16;;;;;;;11.40;6.67;;;11.40;99.90;;;;;;4140986;28;20061;-68
2021/09/20 06:25:17;;;;;;;13.57;6.67;;;11.50;99.90;;;;;;4140331;28;20852;-68
2021/09/20 06:27:19;;;;;;;13.27;6.20;;;11.50;99.90;;;;;;4140930;28;20371;-68
2021/09/20 06:29:20;;;;;;;18.73;7.10;;;11.50;99.90;;;;;;4139716;28;20033;-69
2021/09/20 06:31:21;;;;;;;12.83;5.83;;;11.60;99.90;;;;;;4141540;28;20525;-69
2021/09/20 06:33:22;;;;;;;13.07;7.13;;;11.80;99.90;;;;;;4139812;28;20433;-72
2021/09/20 06:35:23;;;;;;;11.00;6.07;;;11.80;99.90;;;;;;4141020;28;20026;-68
2021/09/20 06:37:24;;;;;;;8.57;6.13;;;11.90;99.90;;;;;;4139433;28;20092;-68
2021/09/20 06:39:26;;;;;;;13.47;6.30;;;11.90;99.90;;;;;;4141279;28;20100;-68
2021/09/20 06:41:27;;;;;;;22.73;7.60;;;11.90;99.90;;;;;;4139921;28;20907;-68
2021/09/20 06:43:28;;;;;;;20.77;8.70;;;12.00;99.90;;;;;;4139459;28;20037;-68
2021/09/20 06:45:30;;;;;;;23.50;8.97;;;12.10;99.90;;;;;;4140588;28;20029;-68
2021/09/20 06:47:31;;;;;;;15.20;8.17;;;12.20;99.90;;;;;;4140466;28;20026;-68
2021/09/20 06:49:32;;;;;;;19.20;7.73;;;12.40;99.90;;;;;;4140635;28;20033;-69
2021/09/20 06:51:33;;;;;;;12.13;7.47;;;12.70;99.90;;;;;;4140173;28;20080;-69
2021/09/20 06:53:35;;;;;;;12.90;7.70;;;12.80;99.90;;;;;;4141054;28;20026;-69
2021/09/20 06:55:36;;;;;;;15.27;7.97;;;12.90;99.90;;;;;;4140176;28;20034;-67
2021/09/20 06:57:38;;;;;;;14.30;7.57;;;12.90;99.90;;;;;;4140988;28;20042;-68
2021/09/20 06:59:39;;;;;;;17.80;8.80;;;13.10;99.90;;;;;;4139593;28;20064;-68
2021/09/20 07:01:41;;;;;;;14.17;7.47;;;13.40;99.90;;;;;;4140717;28;20042;-69
2021/09/20 07:03:42;;;;;;;15.80;7.53;;;13.50;99.90;;;;;;4139265;28;20076;-69
2021/09/20 07:05:43;;;;;;;21.80;8.97;;;13.80;99.90;;;;;;4140726;28;20084;-69
2021/09/20 07:07:44;;;;;;;16.70;8.33;;;14.00;99.90;;;;;;4139893;28;20029;-68
2021/09/20 07:09:46;;;;;;;20.40;7.73;;;14.20;99.90;;;;;;4140696;28;20165;-68
2021/09/20 07:11:47;;;;;;;16.93;6.93;;;14.40;99.90;;;;;;4139242;28;20073;-68
2021/09/20 07:13:49;;;;;;;15.03;6.43;;;14.50;99.90;;;;;;4140480;28;20046;-67
2021/09/20 07:15:50;;;;;;;17.57;7.43;;;14.50;99.90;;;;;;4139689;28;20030;-69
2021/09/20 07:17:51;;;;;;;13.90;7.57;;;14.50;99.90;;;;;;4139844;28;20095;-68
2021/09/20 07:19:53;;;;;;;15.50;6.70;;;14.50;99.90;;;;;;4139813;28;20064;-69
2021/09/20 07:21:54;;;;;;;11.57;6.27;;;14.60;99.90;;;;;;4140114;28;20848;-70
2021/09/20 07:23:55;;;;;;;12.60;5.80;;;14.70;99.90;;;;;;4139921;28;20520;-68
2021/09/20 07:25:57;;;;;;;9.70;5.20;;;14.70;99.90;;;;;;4139773;28;20068;-67
2021/09/20 07:27:58;;;;;;;12.47;5.53;;;14.80;99.90;;;;;;4144213;28;20767;-68
2021/09/20 07:29:59;;;;;;;13.47;6.23;;;14.90;99.90;;;;;;4142831;28;20096;-67
2021/09/20 07:32:00;;;;;;;8.93;4.93;;;15.00;99.90;;;;;;4143781;28;20423;-68
2021/09/20 07:34:01;;;;;;;8.17;4.70;;;15.20;99.90;;;;;;4142587;28;20042;-67
2021/09/20 07:36:02;;;;;;;6.93;5.03;;;15.30;99.90;;;;;;4143556;28;20092;-67
2021/09/20 07:38:04;;;;;;;7.53;5.15;;;15.30;99.90;;;;;;4142587;28;20037;-67
2021/09/20 07:40:05;;;;;;;7.18;4.28;;;15.20;99.90;;;;;;4143691;28;20029;-67
2021/09/20 07:42:08;;;;;;;7.00;4.03;;;15.10;99.90;;;;;;4142170;28;20084;-67
2021/09/20 07:44:09;;;;;;;9.77;6.00;;;15.20;99.90;;;;;;4143466;28;20034;-67
2021/09/20 07:46:12;;;;;;;11.18;6.32;;;15.10;99.90;;;;;;4142544;28;20073;-69
2021/09/20 07:48:13;;;;;;;15.75;6.90;;;14.80;99.90;;;;;;4142345;28;20073;-68
2021/09/20 07:50:18;;;;;;;13.05;6.40;;;14.40;99.90;;;;;;4142232;28;20445;-68
2021/09/20 07:52:19;;;;;;;10.85;6.15;;;14.10;99.90;;;;;;4142265;28;20096;-67
2021/09/20 07:54:20;;;;;;;16.83;6.50;;;13.80;99.90;;;;;;4143479;28;20061;-68
2021/09/20 07:56:21;;;;;;;15.60;6.47;;;13.50;99.90;;;;;;4142438;28;20034;-69
2021/09/20 07:58:23;;;;;;;11.47;6.60;;;13.40;99.90;;;;;;4143317;28;20030;-67
2021/09/20 08:00:24;;;;;;;10.13;5.60;;;13.40;99.90;;;;;;4141844;28;20111;-67
2021/09/20 08:02:25;;;;;;;11.47;5.40;;;13.30;99.90;;;;;;4142888;28;20034;-69
2021/09/20 08:04:26;;;;;;;9.83;4.93;;;13.10;99.90;;;;;;4140126;28;20045;-68
2021/09/20 08:06:28;;;;;;;7.43;5.30;;;13.10;99.90;;;;;;4143294;28;20026;-68
2021/09/20 08:08:30;;;;;;;8.53;5.10;;;13.10;99.90;;;;;;4141987;28;20109;-68
2021/09/20 08:10:33;;;;;;;9.97;5.67;;;13.20;99.90;;;;;;4143051;28;20141;-68
2021/09/20 08:12:34;;;;;;;8.30;5.33;;;13.20;99.90;;;;;;4142095;28;20037;-68
2021/09/20 08:14:35;;;;;;;11.23;5.20;;;13.20;99.90;;;;;;4142707;28;20069;-69
2021/09/20 08:16:37;;;;;;;14.90;5.20;;;13.20;99.90;;;;;;4141908;28;20072;-67
2021/09/20 08:18:38;;;;;;;10.23;4.90;;;13.20;99.90;;;;;;4142759;28;20072;-69
2021/09/20 08:20:40;;;;;;;9.53;5.27;;;13.20;99.90;;;;;;4141942;28;20572;-67
2021/09/20 08:22:41;;;;;;;9.43;5.30;;;13.20;99.90;;;;;;4141855;28;20046;-67
2021/09/20 08:24:43;;;;;;;8.17;4.80;;;13.40;99.90;;;;;;4142634;28;20092;-67
2021/09/20 08:26:44;;;;;;;9.50;4.63;;;13.40;99.90;;;;;;4142079;28;20068;-67
2021/09/20 08:28:45;;;;;;;10.40;4.70;;;13.50;99.90;;;;;;4142478;28;20022;-68
2021/09/20 08:30:46;;;;;;;7.80;4.30;;;13.60;99.90;;;;;;4141288;28;20026;-68
2021/09/20 08:32:48;;;;;;;11.93;4.97;;;13.70;99.90;;;;;;4142242;28;20034;-68
2021/09/20 08:34:49;;;;;;;9.67;5.60;;;13.80;99.90;;;;;;4141742;28;20376;-67
2021/09/20 08:36:50;;;;;;;12.13;4.33;;;14.10;99.90;;;;;;4142671;28;20375;-68
2021/09/20 08:38:52;;;;;;;8.10;5.00;;;14.20;99.90;;;;;;4140077;28;20517;-67
2021/09/20 08:40:54;;;;;;;5.40;3.60;;;14.30;99.90;;;;;;4142656;28;20482;-70
2021/09/20 08:42:56;;;;;;;7.87;4.00;;;14.30;99.90;;;;;;4141652;28;20104;-71
2021/09/20 08:44:58;;;;;;;9.63;3.90;;;14.30;99.90;;;;;;4142910;28;20049;-71
2021/09/20 08:46:59;;;;;;;11.43;3.97;;;14.30;99.90;;;;;;4141004;28;20471;-69
2021/09/20 08:49:00;;;;;;;11.53;3.10;;;14.30;99.90;;;;;;4142270;28;20076;-68
2021/09/20 08:51:02;;;;;;;6.73;3.23;;;14.20;99.90;;;;;;4141426;28;20077;-68
2021/09/20 08:53:05;;;;;;;6.03;3.70;;;14.20;99.90;;;;;;4142094;28;20037;-70
2021/09/20 08:55:08;;;;;;;4.20;2.80;;;14.40;99.90;;;;;;4142448;28;20042;-68
2021/09/20 08:57:09;;;;;;;7.53;3.37;;;14.40;99.90;;;;;;4141315;28;20689;-68
2021/09/20 08:59:12;;;;;;;5.77;2.93;;;14.30;99.90;;;;;;4142177;28;20030;-68
2021/09/20 09:01:13;;;;;;;5.13;3.10;;;14.30;99.90;;;;;;4140971;28;20043;-68
2021/09/20 09:03:19;;;;;;;5.33;2.77;;;14.30;99.90;;;;;;4142520;28;20552;-68
2021/09/20 09:05:26;;;;;;;6.57;2.70;;;14.40;99.90;;;;;;4140932;28;20068;-68
2021/09/20 09:07:27;;;;;;;8.13;2.83;;;14.50;99.90;;;;;;4142027;28;20030;-68
2021/09/20 09:09:35;;;;;;;3.77;2.77;;;14.50;99.90;;;;;;4140890;28;20111;-69
2021/09/20 09:11:36;;;;;;;3.77;2.57;;;14.50;99.90;;;;;;4142128;28;20115;-68
2021/09/20 09:13:43;;;;;;;8.07;2.53;;;14.50;99.90;;;;;;4141004;28;20663;-67
2021/09/20 09:15:48;;;;;;;3.40;2.87;;;14.60;99.90;;;;;;4142729;28;20653;-67
2021/09/20 09:17:53;;;;;;;4.30;2.73;;;14.80;99.90;;;;;;4140638;28;20042;-67
2021/09/20 09:19:57;;;;;;;4.43;2.13;;;14.80;99.90;;;;;;4142348;28;20421;-68
2021/09/20 09:21:58;;;;;;;8.60;3.17;;;14.80;99.90;;;;;;4141181;28;20034;-68
2021/09/20 09:24:20;;;;;;;4.97;3.00;;;14.70;99.90;;;;;;4142073;28;20049;-69
2021/09/20 09:26:21;;;;;;;4.40;2.70;;;14.80;99.90;;;;;;4139255;28;20124;-74
2021/09/20 09:28:26;;;;;;;4.07;2.27;;;14.80;99.90;;;;;;4141772;28;20042;-67
2021/09/20 09:30:30;;;;;;;3.60;2.20;;;14.70;99.90;;;;;;4140107;28;20050;-67
2021/09/20 09:32:31;;;;;;;5.97;2.47;;;14.80;99.90;;;;;;4141466;28;20088;-67
2021/09/20 09:34:33;;;;;;;6.67;2.07;;;15.00;99.90;;;;;;4140455;28;20049;-68
2021/09/20 09:36:36;;;;;;;2.60;1.88;;;15.30;99.90;;;;;;4141330;28;20045;-68
2021/09/20 09:39:00;;;;;;;2.78;1.95;;;15.60;99.90;;;;;;4140879;28;20026;-68
2021/09/20 09:41:04;;;;;;;4.57;2.10;;;16.00;99.90;;;;;;4141766;28;20037;-68
2021/09/20 09:43:06;;;;;;;3.70;2.50;;;15.90;99.90;;;;;;4139320;28;20026;-67
2021/09/20 09:45:32;;;;;;;2.50;1.80;;;15.80;99.90;;;;;;4141272;28;20767;-67
2021/09/20 09:47:34;;;;;;;5.30;2.70;;;15.60;99.90;;;;;;4140088;28;20139;-68
2021/09/20 09:49:35;;;;;;;2.53;2.15;;;15.50;99.90;;;;;;4141268;28;20034;-67
2021/09/20 09:51:57;;;;;;;4.20;2.47;;;15.40;99.90;;;;;;4140807;28;20065;-68
2021/09/20 09:54:07;;;;;;;2.67;2.08;;;15.30;99.90;;;;;;4140759;28;20418;-68
2021/09/20 09:56:14;;;;;;;4.03;2.40;;;15.30;99.90;;;;;;4140891;28;20046;-67
2021/09/20 09:58:16;;;;;;;6.43;2.33;;;15.40;99.90;;;;;;4141500;28;20053;-67
2021/09/20 10:00:20;;;;;;;3.53;2.13;;;15.50;99.90;;;;;;4140353;28;20099;-69
2021/09/20 10:02:27;;;;;;;6.38;2.60;;;15.60;99.90;;;;;;4140264;28;20026;-69
2021/09/20 10:04:30;;;;;;;6.72;2.50;;;15.70;99.90;;;;;;4140276;28;20046;-67
2021/09/20 10:06:53;;;;;;;6.47;2.47;;;15.60;99.90;;;;;;4140393;28;20100;-68
2021/09/20 10:08:55;;;;;;;11.35;3.97;;;15.80;99.90;;;;;;4140338;28;20467;-68
2021/09/20 10:10:56;;;;;;;13.75;3.17;;;15.80;99.90;;;;;;4140100;28;20046;-66
2021/09/20 10:13:00;;;;;;;5.80;2.97;;;15.70;99.90;;;;;;4140912;28;20034;-67
2021/09/20 10:15:03;;;;;;;9.57;3.20;;;15.50;99.90;;;;;;4140572;28;20426;-71
2021/09/20 10:17:05;;;;;;;4.70;1.23;;;15.40;99.90;;;;;;4139243;28;20048;-69
2021/09/20 10:19:06;;;;;;;6.05;2.08;;;15.30;99.90;;;;;;4139501;28;20088;-67
2021/09/20 10:21:07;;;;;;;13.85;4.80;;;15.20;99.90;;;;;;4141060;28;20061;-67
2021/09/20 10:23:09;;;;;;;15.43;4.13;;;15.10;99.90;;;;;;4139676;28;20103;-67
2021/09/20 10:25:13;;;;;;;7.63;1.10;;;15.10;99.90;;;;;;4141349;28;20034;-67
2021/09/20 10:27:17;;;;;;;3.42;1.50;;;15.00;99.90;;;;;;4139672;28;20034;-68
2021/09/20 10:29:20;;;;;;;3.47;1.92;;;15.00;99.90;;;;;;4140656;28;20037;-68
2021/09/20 10:31:23;;;;;;;6.28;2.33;;;14.90;99.90;;;;;;4139819;28;20026;-67
2021/09/20 10:33:28;;;;;;;2.67;1.05;;;14.90;99.90;;;;;;4140864;28;20467;-69